Time;durP1;ratioP1;P1;durP2;ratioP2;P2;SDS_P1;SDS_P2;PMS_P1;PMS_P2;Temp;Humidity;BMP_temperature;BMP_pressure;BME280_temperature;BME280_humidity;BME280_pressure;Samples;Min_cycle;Max_cycle;Signal;HPM_P1;HPM_P2
2022/01/21 00:01:33;;;;;;;1.70;1.50;;;1.10;98.20;;;;;;4956229;28;20477;-70
2022/01/21 00:04:00;;;;;;;1.70;1.60;;;1.10;98.20;;;;;;4971710;28;20470;-70
2022/01/21 00:06:27;;;;;;;1.70;1.60;;;1.10;98.20;;;;;;4957483;28;20560;-70
2022/01/21 00:08:54;;;;;;;1.70;1.60;;;1.10;98.20;;;;;;4968783;28;20496;-70
2022/01/21 00:11:22;;;;;;;1.80;1.70;;;1.10;98.20;;;;;;4958989;28;20481;-70
2022/01/21 00:13:49;;;;;;;1.70;1.60;;;1.10;98.20;;;;;;4975113;28;20501;-70
2022/01/21 00:16:18;;;;;;;1.70;1.50;;;1.10;98.20;;;;;;4962266;28;20487;-70
2022/01/21 00:18:54;;;;;;;1.70;1.60;;;1.10;98.20;;;;;;4965565;28;20490;-70
2022/01/21 00:32:25;;;;;;;1.70;1.60;;;1.10;98.20;;;;;;4963818;28;20477;-70
2022/01/21 00:34:53;;;;;;;1.70;1.60;;;1.10;98.20;;;;;;4971453;28;20461;-70
2022/01/21 00:37:20;;;;;;;1.70;1.60;;;1.10;98.20;;;;;;4966046;28;20926;-70
2022/01/21 00:39:52;;;;;;;1.80;1.70;;;1.10;98.20;;;;;;4966570;28;21026;-70
2022/01/21 00:42:43;;;;;;;1.70;1.60;;;1.10;98.20;;;;;;4962465;28;20528;-70
2022/01/21 00:45:13;;;;;;;1.70;1.57;;;1.00;98.20;;;;;;4969246;28;20513;-70
2022/01/21 00:47:40;;;;;;;1.77;1.67;;;1.00;98.20;;;;;;4977061;28;20488;-71
2022/01/21 00:50:10;;;;;;;1.77;1.67;;;1.00;98.20;;;;;;4969471;28;20817;-70
2022/01/21 00:52:37;;;;;;;1.70;1.60;;;1.00;98.20;;;;;;4972283;28;20477;-70
2022/01/21 00:55:04;;;;;;;1.70;1.60;;;0.90;98.20;;;;;;4968744;28;20465;-72
2022/01/21 00:57:31;;;;;;;1.70;1.60;;;0.90;98.20;;;;;;4973155;28;20493;-75
2022/01/21 00:59:58;;;;;;;1.70;1.60;;;0.90;98.20;;;;;;4969198;28;20486;-71
2022/01/21 01:02:24;;;;;;;1.70;1.60;;;0.90;98.20;;;;;;4962859;28;21066;-72
2022/01/21 01:04:51;;;;;;;1.80;1.70;;;0.90;98.20;;;;;;4967527;28;20475;-72
2022/01/21 01:07:19;;;;;;;1.70;1.60;;;0.90;98.20;;;;;;4964047;28;20485;-71
2022/01/21 01:09:51;;;;;;;1.70;1.60;;;0.90;98.20;;;;;;4972329;28;20922;-71
2022/01/21 01:12:28;;;;;;;1.70;1.60;;;0.90;98.20;;;;;;4962777;28;20521;-75
2022/01/21 01:20:19;;;;;;;1.70;1.50;;;0.90;98.20;;;;;;4943293;28;20532;-77
2022/01/21 01:22:53;;;;;;;1.70;1.60;;;0.90;98.20;;;;;;4962363;28;20488;-72
2022/01/21 01:28:06;;;;;;;1.70;1.60;;;0.90;98.20;;;;;;4973636;28;20855;-73
2022/01/21 01:30:35;;;;;;;1.70;1.60;;;0.90;98.20;;;;;;4966623;28;20483;-72
2022/01/21 01:33:03;;;;;;;1.70;1.50;;;0.90;98.20;;;;;;4972180;28;20485;-72
2022/01/21 01:35:33;;;;;;;1.70;1.57;;;1.00;98.20;;;;;;4965802;28;20470;-72
2022/01/21 01:38:29;;;;;;;1.80;1.70;;;1.00;98.20;;;;;;4959813;28;20482;-73
2022/01/21 01:41:00;;;;;;;1.70;1.60;;;1.00;98.20;;;;;;4960048;28;20766;-74
2022/01/21 01:51:36;;;;;;;1.70;1.60;;;1.00;98.20;;;;;;4961079;28;20481;-72
2022/01/21 01:54:07;;;;;;;1.80;1.70;;;1.00;98.20;;;;;;4968449;28;20465;-72
2022/01/21 01:56:37;;;;;;;1.80;1.70;;;0.90;98.20;;;;;;4962096;28;20485;-71
2022/01/21 01:59:04;;;;;;;1.70;1.60;;;0.90;98.20;;;;;;4977555;28;20492;-73
2022/01/21 02:01:31;;;;;;;1.80;1.70;;;1.00;98.20;;;;;;4962265;28;20495;-72
2022/01/21 02:03:58;;;;;;;1.70;1.60;;;1.00;98.20;;;;;;4967345;28;20473;-72
2022/01/21 02:06:25;;;;;;;1.70;1.60;;;1.00;98.20;;;;;;4960692;28;20470;-71
2022/01/21 02:08:52;;;;;;;1.70;1.60;;;1.00;98.20;;;;;;4970001;28;20508;-71
2022/01/21 02:11:20;;;;;;;1.70;1.60;;;1.00;98.20;;;;;;4965602;28;20499;-73
2022/01/21 02:13:51;;;;;;;1.70;1.50;;;1.00;98.20;;;;;;4972366;28;20466;-73
2022/01/21 02:16:33;;;;;;;1.73;1.63;;;1.10;98.20;;;;;;4969366;28;20488;-74
2022/01/21 02:21:48;;;;;;;1.70;1.60;;;1.10;98.20;;;;;;4967465;28;20703;-76
2022/01/21 02:24:19;;;;;;;1.70;1.60;;;1.10;98.20;;;;;;4979739;28;20462;-73
2022/01/21 02:26:48;;;;;;;1.70;1.50;;;1.10;98.20;;;;;;4964638;28;20480;-73
2022/01/21 02:29:26;;;;;;;1.70;1.60;;;1.10;98.20;;;;;;4985866;28;20585;-74
2022/01/21 02:31:53;;;;;;;1.70;1.50;;;1.10;98.20;;;;;;4961773;28;20539;-73
2022/01/21 02:34:20;;;;;;;1.80;1.70;;;1.10;98.20;;;;;;4979625;28;20466;-73
2022/01/21 02:36:48;;;;;;;1.70;1.60;;;1.10;98.20;;;;;;4971623;28;20489;-72
2022/01/21 02:39:15;;;;;;;1.70;1.60;;;1.00;98.20;;;;;;4976199;28;20493;-72
2022/01/21 02:41:41;;;;;;;1.80;1.70;;;1.00;98.20;;;;;;4968412;28;20487;-73
2022/01/21 02:44:13;;;;;;;1.77;1.67;;;1.00;98.20;;;;;;4980127;28;20470;-75
2022/01/21 02:46:41;;;;;;;1.70;1.60;;;1.00;98.20;;;;;;4969987;28;21054;-73
2022/01/21 02:49:08;;;;;;;1.70;1.60;;;1.00;98.20;;;;;;4981745;28;20881;-73
2022/01/21 02:51:36;;;;;;;1.73;1.63;;;1.00;98.20;;;;;;4967402;28;21000;-74
2022/01/21 02:54:04;;;;;;;1.70;1.60;;;1.10;98.20;;;;;;4972927;28;20470;-73
2022/01/21 02:56:32;;;;;;;1.70;1.50;;;1.10;98.20;;;;;;4962397;28;20489;-74
2022/01/21 02:58:59;;;;;;;1.70;1.50;;;1.10;98.20;;;;;;4966680;28;20994;-73
2022/01/21 03:01:26;;;;;;;1.70;1.60;;;1.10;98.20;;;;;;4965255;28;20972;-73
2022/01/21 03:03:54;;;;;;;1.70;1.50;;;1.20;98.20;;;;;;4980712;28;20476;-73
2022/01/21 03:06:23;;;;;;;1.70;1.60;;;1.20;98.20;;;;;;4965479;28;20560;-72
2022/01/21 03:08:52;;;;;;;1.70;1.60;;;1.20;98.20;;;;;;4987269;28;20482;-74
2022/01/21 03:11:22;;;;;;;1.70;1.60;;;1.20;98.20;;;;;;4964522;28;20510;-72
2022/01/21 03:13:49;;;;;;;1.77;1.67;;;1.30;98.20;;;;;;4979434;28;20474;-73
2022/01/21 03:16:16;;;;;;;1.80;1.70;;;1.30;98.20;;;;;;4972563;28;20489;-72
2022/01/21 03:18:43;;;;;;;1.70;1.60;;;1.30;98.20;;;;;;4981249;28;20576;-72
2022/01/21 03:21:15;;;;;;;1.70;1.60;;;1.30;98.20;;;;;;4963387;28;20575;-76
2022/01/21 03:23:43;;;;;;;1.70;1.60;;;1.40;98.20;;;;;;4981892;28;20466;-72
2022/01/21 03:26:10;;;;;;;1.70;1.60;;;1.40;98.20;;;;;;4963595;28;20489;-74
2022/01/21 03:28:38;;;;;;;1.70;1.60;;;1.40;98.20;;;;;;4968906;28;20521;-75
2022/01/21 03:31:06;;;;;;;1.60;1.50;;;1.40;98.20;;;;;;4961921;28;20946;-74
2022/01/21 03:33:33;;;;;;;1.70;1.50;;;1.40;98.20;;;;;;4988064;28;20484;-73
2022/01/21 03:36:00;;;;;;;1.80;1.70;;;1.40;98.20;;;;;;4968263;28;20472;-72
2022/01/21 03:38:28;;;;;;;1.70;1.53;;;1.40;98.20;;;;;;4984263;28;20493;-77
2022/01/21 03:40:55;;;;;;;1.70;1.50;;;1.40;98.20;;;;;;4960960;28;20849;-73
2022/01/21 03:43:24;;;;;;;1.80;1.70;;;1.40;98.20;;;;;;4984204;28;20461;-75
2022/01/21 03:45:53;;;;;;;1.67;1.50;;;1.30;98.20;;;;;;4967022;28;20466;-76
2022/01/21 03:48:20;;;;;;;1.73;1.63;;;1.30;98.20;;;;;;4972163;28;20465;-72
2022/01/21 03:50:48;;;;;;;1.83;1.73;;;1.30;98.20;;;;;;4964755;28;20528;-73
2022/01/21 03:53:16;;;;;;;1.70;1.60;;;1.20;98.20;;;;;;4984782;28;20853;-72
2022/01/21 03:55:43;;;;;;;1.80;1.70;;;1.20;98.20;;;;;;4975180;28;20465;-73
2022/01/21 03:58:13;;;;;;;1.70;1.60;;;1.10;98.20;;;;;;4961256;28;20505;-74
2022/01/21 04:00:42;;;;;;;1.70;1.60;;;1.10;98.20;;;;;;4970279;28;21108;-75
2022/01/21 04:03:11;;;;;;;1.70;1.60;;;1.00;98.20;;;;;;4972598;28;20494;-71
2022/01/21 04:05:38;;;;;;;1.70;1.60;;;1.00;98.20;;;;;;4968977;28;20470;-73
2022/01/21 04:08:06;;;;;;;1.70;1.60;;;1.00;98.20;;;;;;4963840;28;20488;-72
2022/01/21 04:10:35;;;;;;;1.73;1.63;;;0.90;98.20;;;;;;4968171;28;20504;-73
2022/01/21 04:13:06;;;;;;;1.70;1.60;;;0.90;98.20;;;;;;4972617;28;20489;-70
2022/01/21 04:15:33;;;;;;;1.83;1.73;;;0.90;98.20;;;;;;4977235;28;20736;-73
2022/01/21 04:18:00;;;;;;;1.70;1.60;;;0.90;98.20;;;;;;4971913;28;20486;-73
2022/01/21 04:20:28;;;;;;;1.70;1.57;;;0.90;98.20;;;;;;4968767;28;20548;-73
2022/01/21 04:22:55;;;;;;;1.80;1.70;;;0.90;98.20;;;;;;4974287;28;20488;-73
2022/01/21 04:25:22;;;;;;;1.83;1.73;;;0.90;98.20;;;;;;4969213;28;20462;-75
2022/01/21 04:27:49;;;;;;;1.80;1.70;;;0.90;98.20;;;;;;4976788;28;20954;-72
2022/01/21 04:30:16;;;;;;;1.70;1.60;;;0.90;98.20;;;;;;4968100;28;21003;-72
2022/01/21 04:32:43;;;;;;;1.80;1.70;;;0.90;98.20;;;;;;4967505;28;20486;-72
2022/01/21 04:35:10;;;;;;;1.83;1.73;;;0.90;98.20;;;;;;4974708;28;20930;-72
2022/01/21 04:37:44;;;;;;;1.83;1.73;;;1.00;98.20;;;;;;4972853;28;20484;-73
2022/01/21 04:40:15;;;;;;;1.70;1.60;;;1.00;98.20;;;;;;4980231;28;20497;-72
2022/01/21 04:48:11;;;;;;;1.70;1.60;;;1.10;98.20;;;;;;4962988;28;20566;-75
2022/01/21 04:50:42;;;;;;;1.80;1.70;;;1.10;98.20;;;;;;4976800;28;20565;-72
2022/01/21 04:55:38;;;;;;;1.70;1.50;;;1.20;98.20;;;;;;4998652;22;20557;-74
2022/01/21 04:58:05;;;;;;;1.70;1.60;;;1.20;98.20;;;;;;4980602;28;20480;-75
2022/01/21 05:00:32;;;;;;;1.70;1.50;;;1.20;98.20;;;;;;4975590;28;20497;-74
2022/01/21 05:03:00;;;;;;;1.73;1.63;;;1.30;98.20;;;;;;4977650;28;20502;-74
2022/01/21 05:05:26;;;;;;;1.70;1.60;;;1.30;98.20;;;;;;4968827;28;20544;-74
2022/01/21 05:07:54;;;;;;;1.70;1.50;;;1.30;98.20;;;;;;4971517;28;20536;-75
2022/01/21 05:10:26;;;;;;;1.70;1.50;;;1.30;98.20;;;;;;4968109;28;20493;-74
2022/01/21 05:12:53;;;;;;;1.70;1.60;;;1.30;98.20;;;;;;4973177;28;20491;-74
2022/01/21 05:15:26;;;;;;;1.80;1.70;;;1.30;98.20;;;;;;4968600;28;20489;-77
2022/01/21 05:17:53;;;;;;;1.80;1.70;;;1.30;98.20;;;;;;4967756;28;20489;-76
2022/01/21 05:20:20;;;;;;;1.70;1.50;;;1.40;98.20;;;;;;4971506;28;20468;-75
2022/01/21 05:22:47;;;;;;;1.67;1.50;;;1.40;98.20;;;;;;4975398;28;20503;-79
2022/01/21 05:25:19;;;;;;;1.70;1.60;;;1.40;98.20;;;;;;4967953;28;20481;-77
2022/01/21 05:27:53;;;;;;;1.70;1.60;;;1.40;98.20;;;;;;4979323;28;20582;-77
2022/01/21 05:30:20;;;;;;;1.70;1.60;;;1.40;98.20;;;;;;4969064;28;20469;-75
2022/01/21 05:32:47;;;;;;;1.70;1.50;;;1.40;98.20;;;;;;4974325;28;20489;-75
2022/01/21 05:35:14;;;;;;;1.83;1.73;;;1.40;98.20;;;;;;4971039;28;20826;-74
2022/01/21 05:37:41;;;;;;;1.70;1.60;;;1.40;98.20;;;;;;4967640;28;20480;-74
2022/01/21 05:40:13;;;;;;;1.70;1.60;;;1.40;98.20;;;;;;4973207;28;20842;-77
2022/01/21 05:42:39;;;;;;;1.83;1.73;;;1.40;98.20;;;;;;4977909;28;20572;-77
2022/01/21 05:47:54;;;;;;;1.90;1.80;;;1.40;98.20;;;;;;4976656;28;20495;-73
2022/01/21 05:50:21;;;;;;;1.70;1.60;;;1.40;98.20;;;;;;4972960;28;20466;-75
2022/01/21 05:52:48;;;;;;;1.70;1.60;;;1.30;98.20;;;;;;4977324;28;20518;-75
2022/01/21 05:55:16;;;;;;;1.70;1.60;;;1.30;98.20;;;;;;4970494;28;20489;-77
2022/01/21 05:57:43;;;;;;;1.70;1.60;;;1.20;98.20;;;;;;4977212;28;20484;-76
2022/01/21 06:00:12;;;;;;;1.70;1.50;;;1.20;98.20;;;;;;4973886;28;20477;-77
2022/01/21 06:02:39;;;;;;;1.70;1.50;;;1.20;98.20;;;;;;4977066;28;20499;-77
2022/01/21 06:05:07;;;;;;;1.70;1.50;;;1.10;98.20;;;;;;4973394;28;20482;-75
2022/01/21 06:07:35;;;;;;;1.70;1.60;;;1.10;98.20;;;;;;4973648;28;20878;-75
2022/01/21 06:10:02;;;;;;;1.70;1.50;;;1.10;98.20;;;;;;4973389;28;20976;-77
2022/01/21 06:12:28;;;;;;;1.80;1.70;;;1.10;98.20;;;;;;4973512;28;20484;-75
2022/01/21 06:14:55;;;;;;;1.63;1.50;;;1.20;98.20;;;;;;4973074;28;20485;-73
2022/01/21 06:17:23;;;;;;;1.70;1.53;;;1.20;98.20;;;;;;4961886;28;20477;-72
2022/01/21 06:19:50;;;;;;;1.70;1.60;;;1.20;98.20;;;;;;4966944;28;20465;-75
2022/01/21 06:22:17;;;;;;;1.70;1.53;;;1.20;98.20;;;;;;4973784;28;20500;-74
2022/01/21 06:24:44;;;;;;;1.70;1.50;;;1.30;98.20;;;;;;4975694;28;20509;-73
2022/01/21 06:27:11;;;;;;;1.90;1.80;;;1.30;98.20;;;;;;4974817;28;20484;-74
2022/01/21 06:29:38;;;;;;;1.70;1.60;;;1.30;98.20;;;;;;4976028;28;20465;-75
2022/01/21 06:32:06;;;;;;;1.80;1.70;;;1.30;98.20;;;;;;4968665;28;20993;-76
2022/01/21 06:34:34;;;;;;;1.63;1.50;;;1.40;98.20;;;;;;4977495;28;20556;-76
2022/01/21 06:37:01;;;;;;;1.80;1.70;;;1.40;98.20;;;;;;4972446;28;21017;-75
2022/01/21 06:39:27;;;;;;;1.70;1.50;;;1.40;98.20;;;;;;4977735;28;20497;-76
2022/01/21 06:41:54;;;;;;;1.70;1.53;;;1.40;98.20;;;;;;4970023;28;20485;-75
2022/01/21 06:44:21;;;;;;;1.70;1.60;;;1.40;98.20;;;;;;4979779;28;20486;-75
2022/01/21 06:46:48;;;;;;;1.80;1.70;;;1.40;98.20;;;;;;4970910;28;20551;-75
2022/01/21 06:49:15;;;;;;;1.73;1.63;;;1.30;98.20;;;;;;4981020;28;20496;-78
2022/01/21 06:51:43;;;;;;;1.70;1.60;;;1.30;98.20;;;;;;4968416;28;20564;-76
2022/01/21 06:54:10;;;;;;;1.70;1.53;;;1.30;98.20;;;;;;4978783;28;20525;-76
2022/01/21 06:56:37;;;;;;;1.70;1.57;;;1.30;98.20;;;;;;4967387;28;21011;-77
2022/01/21 06:59:04;;;;;;;1.73;1.63;;;1.30;98.20;;;;;;4981831;28;20576;-75
2022/01/21 07:01:31;;;;;;;1.70;1.60;;;1.30;98.20;;;;;;4966737;28;20488;-74
2022/01/21 07:03:58;;;;;;;1.70;1.50;;;1.30;98.20;;;;;;4979702;28;20490;-77
2022/01/21 07:06:25;;;;;;;1.70;1.60;;;1.30;98.20;;;;;;4965709;28;20483;-77
2022/01/21 07:08:53;;;;;;;1.70;1.60;;;1.30;98.20;;;;;;4981674;28;20462;-76
2022/01/21 07:11:20;;;;;;;1.63;1.50;;;1.30;98.20;;;;;;4970639;28;20914;-75
2022/01/21 07:13:46;;;;;;;1.67;1.50;;;1.30;98.20;;;;;;4982058;28;20490;-75
2022/01/21 07:16:13;;;;;;;1.70;1.60;;;1.30;98.20;;;;;;4964538;28;20489;-76
2022/01/21 07:18:40;;;;;;;1.70;1.60;;;1.30;98.20;;;;;;4990863;28;20492;-77
2022/01/21 07:21:07;;;;;;;1.97;1.80;;;1.30;98.20;;;;;;4962860;28;20560;-77
2022/01/21 07:23:34;;;;;;;1.70;1.60;;;1.30;98.20;;;;;;4983348;28;20470;-75
2022/01/21 07:26:02;;;;;;;1.67;1.50;;;1.20;98.20;;;;;;4961914;28;20473;-75
2022/01/21 07:28:28;;;;;;;1.70;1.50;;;1.20;98.20;;;;;;4983431;28;20484;-77
2022/01/21 07:30:55;;;;;;;1.70;1.50;;;1.20;98.20;;;;;;4959541;28;20472;-76
2022/01/21 07:33:22;;;;;;;1.80;1.70;;;1.20;98.20;;;;;;4983804;28;20461;-72
2022/01/21 07:35:50;;;;;;;2.07;1.90;;;1.20;98.20;;;;;;4959767;28;20902;-74
2022/01/21 07:38:16;;;;;;;1.70;1.53;;;1.20;98.20;;;;;;4985155;28;20520;-75
2022/01/21 07:40:43;;;;;;;1.70;1.60;;;1.10;98.20;;;;;;4968244;28;20465;-75
2022/01/21 07:43:11;;;;;;;1.70;1.60;;;1.10;98.20;;;;;;4962334;28;20993;-78
2022/01/21 07:45:39;;;;;;;1.70;1.50;;;1.10;98.20;;;;;;4968525;28;20509;-77
2022/01/21 07:48:06;;;;;;;1.80;1.70;;;1.10;98.20;;;;;;4975644;28;20476;-74
2022/01/21 07:50:34;;;;;;;1.80;1.70;;;1.00;98.20;;;;;;4969401;28;20473;-76
2022/01/21 07:53:01;;;;;;;1.70;1.60;;;1.00;98.20;;;;;;4974456;28;20481;-74
2022/01/21 07:55:28;;;;;;;1.70;1.50;;;1.00;98.20;;;;;;4967156;28;20497;-75
2022/01/21 07:57:55;;;;;;;1.70;1.60;;;1.00;98.20;;;;;;4974036;28;20833;-75
2022/01/21 08:00:23;;;;;;;1.73;1.63;;;1.00;98.20;;;;;;4968970;28;20884;-78
2022/01/21 08:02:50;;;;;;;1.70;1.60;;;1.00;98.20;;;;;;4973909;28;20572;-75
2022/01/21 08:05:17;;;;;;;1.80;1.70;;;1.00;98.20;;;;;;4968780;28;20863;-75
2022/01/21 08:07:44;;;;;;;1.77;1.67;;;1.00;98.20;;;;;;4974869;28;20493;-74
2022/01/21 08:10:10;;;;;;;1.80;1.70;;;1.00;98.20;;;;;;4970433;28;20489;-76
2022/01/21 08:12:38;;;;;;;1.80;1.70;;;1.10;98.20;;;;;;4972659;28;20485;-75
2022/01/21 08:15:05;;;;;;;1.80;1.70;;;1.20;98.20;;;;;;4970214;28;20900;-76
2022/01/21 08:17:33;;;;;;;1.80;1.70;;;1.30;98.20;;;;;;4974196;28;20868;-74
2022/01/21 08:20:00;;;;;;;1.67;1.50;;;1.30;98.20;;;;;;4971728;28;20865;-76
2022/01/21 08:22:28;;;;;;;1.70;1.50;;;1.40;98.20;;;;;;4972572;28;20488;-76
2022/01/21 08:24:55;;;;;;;1.87;1.77;;;1.40;98.20;;;;;;4971087;28;20671;-76
2022/01/21 08:27:22;;;;;;;1.70;1.60;;;1.50;98.20;;;;;;4974694;28;20484;-76
2022/01/21 08:29:50;;;;;;;1.70;1.60;;;1.50;98.20;;;;;;4977939;28;20517;-76
2022/01/21 08:32:17;;;;;;;1.80;1.70;;;1.60;98.20;;;;;;4969654;28;20599;-74
2022/01/21 08:34:45;;;;;;;1.70;1.60;;;1.60;98.20;;;;;;4972949;28;21556;-77
2022/01/21 08:37:12;;;;;;;1.70;1.60;;;1.70;98.20;;;;;;4970046;28;20516;-74
2022/01/21 08:39:40;;;;;;;1.70;1.50;;;1.70;98.20;;;;;;4971646;28;20494;-74
2022/01/21 08:42:08;;;;;;;1.80;1.70;;;1.70;98.20;;;;;;4957862;28;20606;-74
2022/01/21 08:44:37;;;;;;;1.70;1.60;;;1.80;98.20;;;;;;4972247;28;20775;-73
2022/01/21 08:47:04;;;;;;;1.63;1.50;;;1.80;98.20;;;;;;4974685;28;20880;-73
2022/01/21 08:49:31;;;;;;;1.80;1.70;;;1.80;98.20;;;;;;4976251;28;20545;-75
2022/01/21 08:52:00;;;;;;;1.70;1.60;;;1.90;98.20;;;;;;4967677;28;20564;-74
2022/01/21 08:54:28;;;;;;;1.67;1.50;;;1.90;98.20;;;;;;4973665;28;21008;-74
2022/01/21 08:56:56;;;;;;;1.73;1.63;;;1.90;98.20;;;;;;4964391;28;20867;-72
2022/01/21 08:59:26;;;;;;;1.70;1.60;;;2.00;98.20;;;;;;4972899;28;20494;-73
2022/01/21 09:01:54;;;;;;;1.67;1.50;;;2.00;98.20;;;;;;4962074;28;20493;-74
2022/01/21 09:04:21;;;;;;;1.70;1.50;;;2.10;98.20;;;;;;4971910;28;20505;-74
2022/01/21 09:06:48;;;;;;;1.77;1.67;;;2.10;98.20;;;;;;4964446;28;20571;-73
2022/01/21 09:09:16;;;;;;;1.70;1.50;;;2.20;98.20;;;;;;4972140;28;20466;-73
2022/01/21 09:11:43;;;;;;;1.70;1.60;;;2.20;98.20;;;;;;4969677;28;20477;-74
2022/01/21 09:14:10;;;;;;;1.77;1.67;;;2.20;98.20;;;;;;4983285;28;20486;-73
2022/01/21 09:16:38;;;;;;;1.70;1.60;;;2.30;98.20;;;;;;4972095;28;20480;-73
2022/01/21 09:19:06;;;;;;;1.70;1.50;;;2.30;98.20;;;;;;4980463;28;20489;-74
2022/01/21 09:21:34;;;;;;;1.67;1.43;;;2.30;98.20;;;;;;4968615;28;20527;-74
2022/01/21 09:24:02;;;;;;;1.60;1.50;;;2.40;98.20;;;;;;4984002;28;20671;-73
2022/01/21 09:26:30;;;;;;;1.70;1.60;;;2.40;98.20;;;;;;4964541;28;20504;-74
2022/01/21 09:28:59;;;;;;;1.80;1.70;;;2.40;98.20;;;;;;4981037;28;20929;-74
2022/01/21 09:31:26;;;;;;;1.70;1.50;;;2.50;98.20;;;;;;4959794;28;20861;-73
2022/01/21 09:33:56;;;;;;;1.70;1.60;;;2.50;98.20;;;;;;4971316;28;20489;-72
2022/01/21 09:36:23;;;;;;;1.70;1.50;;;2.60;98.20;;;;;;4968831;28;21113;-73
2022/01/21 09:38:50;;;;;;;1.73;1.63;;;2.70;98.20;;;;;;4975101;28;20486;-72
2022/01/21 09:41:17;;;;;;;1.70;1.50;;;2.70;98.20;;;;;;4961937;28;20487;-74
2022/01/21 09:43:48;;;;;;;1.60;1.40;;;2.80;98.20;;;;;;4980596;28;20513;-73
2022/01/21 09:46:16;;;;;;;1.70;1.50;;;2.90;98.20;;;;;;4974299;28;20481;-74
2022/01/21 09:48:53;;;;;;;1.63;1.50;;;3.00;98.20;;;;;;4988397;28;20477;-73
2022/01/21 09:51:20;;;;;;;1.67;1.50;;;3.00;98.20;;;;;;4966969;28;20528;-74
2022/01/21 09:53:47;;;;;;;1.70;1.50;;;3.10;98.20;;;;;;4975002;28;20498;-73
2022/01/21 09:56:16;;;;;;;1.70;1.60;;;3.10;98.20;;;;;;4960827;28;20837;-73
2022/01/21 09:58:46;;;;;;;3.40;3.20;;;3.20;98.20;;;;;;4970295;28;20685;-73
2022/01/21 10:01:19;;;;;;;1.67;1.40;;;3.30;98.20;;;;;;4956336;28;20560;-74
2022/01/21 10:03:46;;;;;;;1.80;1.70;;;3.40;98.20;;;;;;4972049;28;20903;-73
2022/01/21 10:06:13;;;;;;;1.70;1.50;;;3.40;98.20;;;;;;4968741;28;20495;-73
2022/01/21 10:08:41;;;;;;;1.70;1.47;;;3.40;98.20;;;;;;4986728;28;20458;-72
2022/01/21 10:11:09;;;;;;;1.70;1.60;;;3.50;98.20;;;;;;4962295;28;21024;-73
2022/01/21 10:13:37;;;;;;;1.67;1.50;;;3.60;98.20;;;;;;4973895;28;20555;-73
2022/01/21 10:16:04;;;;;;;1.63;1.40;;;3.70;98.20;;;;;;4954771;28;20473;-73
2022/01/21 10:18:33;;;;;;;1.63;1.40;;;3.70;98.20;;;;;;4985000;28;20559;-73
2022/01/21 10:21:05;;;;;;;1.60;1.40;;;3.80;98.20;;;;;;4964452;28;20830;-74
2022/01/21 10:23:35;;;;;;;1.67;1.40;;;3.90;98.20;;;;;;4981391;28;20962;-72
2022/01/21 10:26:06;;;;;;;1.67;1.43;;;4.00;98.20;;;;;;4961153;28;20481;-74
2022/01/21 10:28:34;;;;;;;1.60;1.33;;;4.00;98.20;;;;;;4985790;28;20473;-73
2022/01/21 10:31:09;;;;;;;1.70;1.40;;;4.00;98.20;;;;;;4964372;28;20469;-74
2022/01/21 10:33:41;;;;;;;1.67;1.40;;;4.10;98.20;;;;;;4982264;28;20489;-75
2022/01/21 10:36:10;;;;;;;1.70;1.50;;;4.30;98.20;;;;;;4962080;28;21047;-74
2022/01/21 10:38:43;;;;;;;1.70;1.40;;;4.40;98.20;;;;;;4984228;28;20768;-74
2022/01/21 10:41:12;;;;;;;1.67;1.40;;;4.40;98.20;;;;;;4966377;28;20485;-73
2022/01/21 10:43:39;;;;;;;1.67;1.43;;;4.50;98.20;;;;;;4970911;28;20482;-74
2022/01/21 10:46:06;;;;;;;1.63;1.40;;;4.50;98.20;;;;;;4967103;28;20559;-73
2022/01/21 10:48:54;;;;;;;1.60;1.30;;;4.60;98.20;;;;;;4983620;28;20844;-74
2022/01/21 10:51:25;;;;;;;1.67;1.37;;;4.70;98.20;;;;;;4965267;28;21012;-75
2022/01/21 10:53:52;;;;;;;1.63;1.40;;;4.80;98.20;;;;;;4983909;28;20847;-74
2022/01/21 10:56:19;;;;;;;1.67;1.40;;;4.90;98.20;;;;;;4964485;28;20489;-74
2022/01/21 10:58:50;;;;;;;1.70;1.40;;;4.90;98.20;;;;;;4981268;28;20470;-73
2022/01/21 11:01:21;;;;;;;1.70;1.40;;;5.00;98.20;;;;;;4958718;28;20474;-73
2022/01/21 11:04:00;;;;;;;1.60;1.30;;;5.10;98.20;;;;;;4974702;28;20493;-73
2022/01/21 11:06:36;;;;;;;1.70;1.40;;;5.10;98.20;;;;;;4958926;28;20532;-73
2022/01/21 11:09:15;;;;;;;1.67;1.33;;;5.20;98.20;;;;;;4969938;28;20465;-73
2022/01/21 11:11:42;;;;;;;1.70;1.47;;;5.30;98.20;;;;;;4968013;28;20574;-73
2022/01/21 11:14:13;;;;;;;1.60;1.30;;;5.40;98.20;;;;;;4979676;28;20489;-73
2022/01/21 11:16:44;;;;;;;1.70;1.50;;;5.40;98.20;;;;;;4972191;28;20492;-74
2022/01/21 11:19:13;;;;;;;1.60;1.30;;;5.40;98.20;;;;;;4979501;28;20490;-75
2022/01/21 11:21:45;;;;;;;1.63;1.30;;;5.50;98.20;;;;;;4970105;28;20492;-76
2022/01/21 11:24:13;;;;;;;1.63;1.30;;;5.50;98.20;;;;;;4979785;28;20968;-75
2022/01/21 11:26:41;;;;;;;1.70;1.33;;;5.60;98.20;;;;;;4972458;28;20492;-74
2022/01/21 11:29:10;;;;;;;1.63;1.30;;;5.60;98.20;;;;;;4985106;28;20462;-75
2022/01/21 11:31:37;;;;;;;1.70;1.50;;;5.70;98.20;;;;;;4993362;23;20823;-74
2022/01/21 11:34:03;;;;;;;1.70;1.40;;;5.70;98.20;;;;;;4990619;28;20992;-74
2022/01/21 11:36:30;;;;;;;1.67;1.30;;;5.70;98.20;;;;;;4975640;28;20925;-73
2022/01/21 11:38:59;;;;;;;1.63;1.30;;;5.70;98.20;;;;;;4981427;28;20469;-75
2022/01/21 11:41:27;;;;;;;1.63;1.30;;;5.80;98.20;;;;;;4966785;28;21232;-74
2022/01/21 11:43:59;;;;;;;1.70;1.30;;;5.80;98.20;;;;;;4970610;28;20466;-76
2022/01/21 11:46:41;;;;;;;1.70;1.43;;;5.80;98.20;;;;;;4961520;28;20489;-75
2022/01/21 11:49:17;;;;;;;1.60;1.30;;;5.80;98.20;;;;;;4979041;28;20458;-75
2022/01/21 11:51:44;;;;;;;3.70;3.40;;;5.80;98.20;;;;;;4961418;28;20526;-74
2022/01/21 11:54:14;;;;;;;1.60;1.30;;;5.70;98.20;;;;;;4973115;28;20477;-75
2022/01/21 11:56:46;;;;;;;1.67;1.33;;;5.70;98.20;;;;;;4965962;28;20882;-73
2022/01/21 11:59:31;;;;;;;1.67;1.40;;;5.60;98.20;;;;;;4970244;28;20497;-77
2022/01/21 12:01:59;;;;;;;1.60;1.30;;;5.60;98.20;;;;;;4968263;28;20523;-73
2022/01/21 12:04:40;;;;;;;1.67;1.40;;;5.60;98.20;;;;;;4979003;28;20552;-74
2022/01/21 12:07:54;;;;;;;1.70;1.30;;;5.60;98.20;;;;;;4961955;28;20485;-74
2022/01/21 12:10:43;;;;;;;1.70;1.30;;;5.60;98.20;;;;;;4951955;28;20880;-74
2022/01/21 12:13:19;;;;;;;1.60;1.30;;;5.60;98.20;;;;;;4971525;28;20878;-74
2022/01/21 12:19:10;;;;;;;1.63;1.30;;;5.60;98.20;;;;;;4961684;28;20552;-75
2022/01/21 12:21:38;;;;;;;1.60;1.30;;;5.60;98.20;;;;;;4956361;28;20882;-74
2022/01/21 12:24:08;;;;;;;1.60;1.30;;;5.60;98.20;;;;;;4976701;28;20467;-74
2022/01/21 12:26:36;;;;;;;1.60;1.20;;;5.60;98.20;;;;;;4959674;28;20481;-72
2022/01/21 12:29:26;;;;;;;1.63;1.30;;;5.60;98.20;;;;;;4974819;28;20470;-73
2022/01/21 12:32:03;;;;;;;1.60;1.30;;;5.70;98.20;;;;;;4962005;28;20485;-74
2022/01/21 12:35:15;;;;;;;1.60;1.30;;;5.70;98.20;;;;;;4962430;28;20522;-75
2022/01/21 12:39:05;;;;;;;1.70;1.50;;;5.70;98.20;;;;;;4969783;28;20981;-73
2022/01/21 12:41:00;;;;;;;1.60;1.30;;;5.70;98.20;;;;;;4949490;28;20501;-73
2022/01/21 12:43:39;;;;;;;1.60;1.30;;;5.70;98.20;;;;;;4962423;28;20973;-74
2022/01/21 12:46:09;;;;;;;1.60;1.40;;;5.70;98.20;;;;;;4960341;28;20481;-74
2022/01/21 12:48:37;;;;;;;1.67;1.30;;;5.70;98.20;;;;;;4974432;28;20753;-76
2022/01/21 12:51:17;;;;;;;1.60;1.27;;;5.70;98.20;;;;;;4946816;28;20655;-75
2022/01/21 12:56:41;;;;;;;1.67;1.40;;;5.60;98.20;;;;;;4959355;28;20893;-74
2022/01/21 12:59:16;;;;;;;1.60;1.30;;;5.50;98.20;;;;;;4962531;28;20868;-75
2022/01/21 13:01:43;;;;;;;1.63;1.30;;;5.50;98.20;;;;;;4956162;28;20500;-73
2022/01/21 13:04:21;;;;;;;1.67;1.30;;;5.60;98.20;;;;;;4980931;28;20845;-75
2022/01/21 13:06:55;;;;;;;1.60;1.20;;;5.60;98.20;;;;;;4961332;28;20484;-75
2022/01/21 13:09:43;;;;;;;1.63;1.40;;;5.50;98.20;;;;;;4971379;28;20474;-74
2022/01/21 13:12:12;;;;;;;1.60;1.27;;;5.50;98.20;;;;;;4949807;28;20494;-75
2022/01/21 13:14:45;;;;;;;2.17;1.97;;;5.60;98.20;;;;;;4963635;28;20466;-74
2022/01/21 13:17:15;;;;;;;1.63;1.40;;;5.50;98.20;;;;;;4968427;28;20495;-72
2022/01/21 13:19:45;;;;;;;1.60;1.30;;;5.50;98.20;;;;;;4965197;28;21037;-73
2022/01/21 13:22:16;;;;;;;1.67;1.40;;;5.50;98.20;;;;;;4967740;28;20491;-73
2022/01/21 13:24:58;;;;;;;1.60;1.30;;;5.50;98.20;;;;;;4968286;28;20540;-73
2022/01/21 13:27:26;;;;;;;1.67;1.30;;;5.50;98.20;;;;;;4967903;28;20934;-74
2022/01/21 13:30:00;;;;;;;1.60;1.30;;;5.50;98.20;;;;;;4962353;28;20835;-73
2022/01/21 13:32:27;;;;;;;1.67;1.30;;;5.40;98.20;;;;;;4967263;28;20493;-73
2022/01/21 13:35:09;;;;;;;1.60;1.20;;;5.40;98.20;;;;;;4960018;28;20947;-73
2022/01/21 13:37:35;;;;;;;1.60;1.30;;;5.40;98.20;;;;;;4968202;28;20527;-73
2022/01/21 13:40:05;;;;;;;1.60;1.30;;;5.40;98.20;;;;;;4954828;28;20502;-73
2022/01/21 13:42:32;;;;;;;1.63;1.40;;;5.40;98.20;;;;;;4963606;28;20867;-73
2022/01/21 13:45:04;;;;;;;1.60;1.30;;;5.40;98.20;;;;;;4968697;28;21057;-73
2022/01/21 13:47:36;;;;;;;1.60;1.30;;;5.40;98.20;;;;;;4965089;28;20823;-72
2022/01/21 13:50:08;;;;;;;1.60;1.30;;;5.40;98.20;;;;;;4963251;28;20467;-73
2022/01/21 13:52:46;;;;;;;1.63;1.40;;;5.40;98.20;;;;;;4969700;28;20580;-73
2022/01/21 13:55:27;;;;;;;1.60;1.30;;;5.40;98.20;;;;;;4961637;28;20994;-73
2022/01/21 13:57:55;;;;;;;1.60;1.30;;;5.40;98.20;;;;;;4969961;28;20873;-72